CheckWX is a tool to help pilots better visualize weather data.  It is not intended as a substitute for an official pre-flight weather briefing.

16:00:46 UTC

KIAD TAF
Washington Dulles International Airport
Washington, Virginia, USA
KIAD 041122Z 0412/0518 34007KT P6SM OVC040 FM041500 35006KT P6SM OVC025 FM042200 VRB03KT P6SM BKN045 FM050800 VRB04KT P6SM BKN060

Apr-4@
12:00 UTC

Apr-4 @ 12:00 UTC

Apr-4@
15:00 UTC

Apr-4 @ 15:00 UTC

TAF KIAD 041122Z 0412/0518 34007KT P6SM OVC040

Expired

Wind
  • 340° at 7 KTS
Cloud Levels
  • Overcast at 4,000' AGL

Apr-4@
15:00 UTC

Apr-4 @ 15:00 UTC

Apr-4@
22:00 UTC

Apr-4 @ 22:00 UTC

FM041500 35006KT P6SM OVC025

Expired

Wind
  • 350° at 6 KTS
Cloud Levels
  • Overcast at 2,500' AGL

Apr-4@
22:00 UTC

Apr-4 @ 22:00 UTC

Apr-5@
08:00 UTC

Apr-5 @ 08:00 UTC

FM042200 VRB03KT P6SM BKN045

Expired

Wind
  • Variable at 3 KTS
Cloud Levels
  • Broken at 4,500' AGL

Apr-5@
08:00 UTC

Apr-5 @ 08:00 UTC

Apr-5@
18:00 UTC

Apr-5 @ 18:00 UTC

FM050800 VRB04KT P6SM BKN060

From

From Standard forecast or significant change

Wind
  • Variable at 4 KTS
Cloud Levels
  • Broken at 6,000' AGL